Time;durP1;ratioP1;P1;durP2;ratioP2;P2;SDS_P1;SDS_P2;PMS_P1;PMS_P2;Temp;Humidity;BMP_temperature;BMP_pressure;BME280_temperature;BME280_humidity;BME280_pressure;Samples;Min_cycle;Max_cycle;Signal;HPM_P1;HPM_P2
2022/01/09 00:00:45;;;;;;;31.95;5.68;;;6.80;99.90;;;;;;5094157;28;20099;-78
2022/01/09 00:03:11;;;;;;;30.48;4.75;;;6.80;99.90;;;;;;5093550;28;20052;-75
2022/01/09 00:05:37;;;;;;;34.30;4.88;;;6.80;99.90;;;;;;5092986;28;20020;-76
2022/01/09 00:08:03;;;;;;;49.58;5.97;;;6.80;99.90;;;;;;5093510;28;20024;-75
2022/01/09 00:10:30;;;;;;;33.90;4.88;;;6.80;99.90;;;;;;5093841;28;20032;-76
2022/01/09 00:12:59;;;;;;;44.97;5.47;;;6.80;99.90;;;;;;5092979;28;20123;-77
2022/01/09 00:15:25;;;;;;;52.28;7.18;;;6.70;99.90;;;;;;5093192;28;20522;-75
2022/01/09 00:17:50;;;;;;;46.97;6.28;;;6.70;99.90;;;;;;5093641;28;20036;-76
2022/01/09 00:20:16;;;;;;;41.70;5.45;;;6.70;99.90;;;;;;5092533;28;20428;-77
2022/01/09 00:22:46;;;;;;;34.58;5.78;;;6.70;99.90;;;;;;5091661;28;20020;-76
2022/01/09 00:25:14;;;;;;;39.65;5.47;;;6.70;99.90;;;;;;5080641;28;20542;-76
2022/01/09 00:27:40;;;;;;;45.00;5.28;;;6.70;99.90;;;;;;5092052;28;20032;-77
2022/01/09 00:30:08;;;;;;;33.58;5.43;;;6.70;99.90;;;;;;5093128;28;20430;-77
2022/01/09 00:32:34;;;;;;;41.63;5.72;;;6.80;99.90;;;;;;5093091;28;20078;-76
2022/01/09 00:35:00;;;;;;;43.60;5.20;;;6.80;99.90;;;;;;5092924;28;20468;-77
2022/01/09 00:37:25;;;;;;;52.00;7.80;;;6.80;99.90;;;;;;5093072;28;20027;-76
2022/01/09 00:39:52;;;;;;;40.95;4.78;;;6.80;99.90;;;;;;5092597;28;20021;-77
2022/01/09 00:42:18;;;;;;;26.55;4.05;;;6.80;99.90;;;;;;5093294;28;20035;-76
2022/01/09 00:44:43;;;;;;;43.40;5.32;;;6.80;99.90;;;;;;5093433;28;20028;-77
2022/01/09 00:47:09;;;;;;;40.78;4.95;;;6.80;99.90;;;;;;5092118;28;20426;-75
2022/01/09 00:49:34;;;;;;;32.13;4.50;;;6.90;99.90;;;;;;5093142;28;20499;-75
2022/01/09 00:52:00;;;;;;;36.17;4.80;;;6.80;99.90;;;;;;5099520;28;20028;-77
2022/01/09 00:54:27;;;;;;;34.30;4.78;;;6.80;99.90;;;;;;5094804;28;20458;-77
2022/01/09 00:56:53;;;;;;;33.15;4.72;;;6.80;99.90;;;;;;5093122;28;20024;-75
2022/01/09 00:59:22;;;;;;;42.88;7.78;;;6.80;99.90;;;;;;5093525;28;20031;-78
2022/01/09 01:01:47;;;;;;;38.83;7.68;;;6.80;99.90;;;;;;5095480;28;20080;-78
2022/01/09 01:04:13;;;;;;;38.78;6.78;;;6.80;99.90;;;;;;5094649;28;20056;-76
2022/01/09 01:06:38;;;;;;;30.80;5.00;;;6.70;99.90;;;;;;5096982;28;20020;-77
2022/01/09 01:09:04;;;;;;;36.00;6.40;;;6.80;99.90;;;;;;5092514;28;20039;-76
2022/01/09 01:11:29;;;;;;;42.47;5.85;;;6.80;99.90;;;;;;5092940;28;20024;-76
2022/01/09 01:13:55;;;;;;;47.83;6.40;;;6.80;99.90;;;;;;5092681;28;20032;-77
2022/01/09 01:16:23;;;;;;;43.72;6.03;;;6.70;99.90;;;;;;5091871;28;20077;-76
2022/01/09 01:18:49;;;;;;;35.17;4.20;;;6.70;99.90;;;;;;5093872;28;20479;-77
2022/01/09 01:21:14;;;;;;;38.10;6.15;;;6.70;99.90;;;;;;5092349;28;20024;-77
2022/01/09 01:23:41;;;;;;;31.75;4.32;;;6.80;99.90;;;;;;5092316;28;20070;-77
2022/01/09 01:26:07;;;;;;;34.38;5.25;;;6.70;99.90;;;;;;5093234;28;20089;-76
2022/01/09 01:28:33;;;;;;;27.35;4.30;;;6.70;99.90;;;;;;5093529;28;20074;-76
2022/01/09 01:31:00;;;;;;;53.90;7.85;;;6.70;99.90;;;;;;5093242;28;20082;-77
2022/01/09 01:33:26;;;;;;;40.05;5.95;;;6.70;99.90;;;;;;5092553;28;20028;-77
2022/01/09 01:35:51;;;;;;;39.58;6.25;;;6.70;99.90;;;;;;5092419;28;20020;-77
2022/01/09 01:38:17;;;;;;;28.48;5.43;;;6.70;99.90;;;;;;5091606;28;20032;-77
2022/01/09 01:40:43;;;;;;;31.88;4.80;;;6.80;99.90;;;;;;5092214;28;20020;-76
2022/01/09 01:43:11;;;;;;;38.03;6.47;;;6.80;99.90;;;;;;5091374;28;20535;-77
2022/01/09 01:45:37;;;;;;;37.35;4.10;;;6.80;99.90;;;;;;5092173;28;20031;-77
2022/01/09 01:48:06;;;;;;;36.65;4.60;;;6.80;99.90;;;;;;5091814;28;20020;-77
2022/01/09 01:50:38;;;;;;;35.72;5.55;;;6.70;99.90;;;;;;5092841;28;20043;-77
2022/01/09 01:53:08;;;;;;;31.17;5.65;;;6.70;99.90;;;;;;5093132;28;20036;-77
2022/01/09 01:55:37;;;;;;;26.73;5.40;;;6.70;99.90;;;;;;5093246;28;20027;-77
2022/01/09 01:58:04;;;;;;;32.67;3.88;;;6.70;99.90;;;;;;5092857;28;20095;-77
2022/01/09 02:00:30;;;;;;;25.92;5.05;;;6.60;99.90;;;;;;5093146;28;20016;-75
2022/01/09 02:02:56;;;;;;;27.60;6.43;;;6.70;99.90;;;;;;5093196;28;20514;-77
2022/01/09 02:05:21;;;;;;;22.77;3.53;;;6.70;99.90;;;;;;5092794;28;20020;-77
2022/01/09 02:07:49;;;;;;;16.83;4.45;;;6.60;99.90;;;;;;5093856;28;20088;-74
2022/01/09 02:10:15;;;;;;;22.83;4.10;;;6.60;99.90;;;;;;5093252;28;20058;-76
2022/01/09 02:12:40;;;;;;;21.77;5.53;;;6.70;99.90;;;;;;5092839;28;20455;-76
2022/01/09 02:15:26;;;;;;;20.25;3.38;;;6.60;99.90;;;;;;5093449;28;20414;-77
2022/01/09 02:17:52;;;;;;;19.92;4.00;;;6.60;99.90;;;;;;5097381;28;20024;-78
2022/01/09 02:20:18;;;;;;;28.35;3.78;;;6.60;99.90;;;;;;5096338;28;20032;-78
2022/01/09 02:22:43;;;;;;;19.95;3.10;;;6.60;99.90;;;;;;5098207;28;20027;-77
2022/01/09 02:25:10;;;;;;;15.35;2.63;;;6.70;99.90;;;;;;5096307;28;20024;-74
2022/01/09 02:27:36;;;;;;;22.05;3.50;;;6.70;99.90;;;;;;5096864;28;20378;-77
2022/01/09 02:30:03;;;;;;;30.38;3.65;;;6.70;99.90;;;;;;5096644;28;20119;-76
2022/01/09 02:32:31;;;;;;;18.80;3.20;;;6.70;99.90;;;;;;5096120;28;20032;-76
2022/01/09 02:34:57;;;;;;;37.17;4.43;;;6.70;99.90;;;;;;5097159;28;20035;-76
2022/01/09 02:37:23;;;;;;;37.80;4.35;;;6.70;99.90;;;;;;5096484;28;20103;-77
2022/01/09 02:39:49;;;;;;;20.48;2.47;;;6.60;99.90;;;;;;5095103;28;20081;-76
2022/01/09 02:42:24;;;;;;;12.77;2.25;;;6.60;99.90;;;;;;5096199;28;20028;-76
2022/01/09 02:44:50;;;;;;;17.00;3.25;;;6.60;99.90;;;;;;5096213;28;20028;-76
2022/01/09 02:47:16;;;;;;;13.90;2.42;;;6.70;99.90;;;;;;5082729;28;20013;-76
2022/01/09 02:49:46;;;;;;;16.77;2.72;;;6.60;99.90;;;;;;5080688;28;20043;-76
2022/01/09 02:52:25;;;;;;;;;;;6.60;99.90;;;;;;5083658;28;20013;-76
2022/01/09 02:57:52;;;;;;;31.52;5.68;;;6.50;99.90;;;;;;5083215;28;20383;-77
2022/01/09 03:00:21;;;;;;;23.60;2.95;;;6.50;99.90;;;;;;5096010;28;20024;-76
2022/01/09 03:02:47;;;;;;;22.05;2.95;;;6.50;99.90;;;;;;5099941;28;20044;-75
2022/01/09 03:05:13;;;;;;;13.85;2.95;;;6.50;99.90;;;;;;5097171;28;20036;-77
2022/01/09 03:07:40;;;;;;;24.15;3.88;;;6.50;99.90;;;;;;5078534;28;20035;-78
2022/01/09 03:10:08;;;;;;;16.15;2.13;;;6.40;99.90;;;;;;5077012;28;20033;-77
2022/01/09 03:12:37;;;;;;;15.77;3.03;;;6.40;99.90;;;;;;5075043;28;20035;-77
2022/01/09 03:15:04;;;;;;;23.02;3.75;;;6.40;99.90;;;;;;5073772;28;20028;-77
2022/01/09 03:17:30;;;;;;;29.80;5.95;;;6.50;99.90;;;;;;5076715;28;20107;-77
2022/01/09 03:19:56;;;;;;;21.83;2.90;;;6.50;99.90;;;;;;5074518;28;20556;-77
2022/01/09 03:22:21;;;;;;;23.23;4.20;;;6.60;99.90;;;;;;5074444;28;20491;-76
2022/01/09 03:24:49;;;;;;;24.70;2.95;;;6.60;99.90;;;;;;5095070;28;20376;-77
2022/01/09 03:27:15;;;;;;;14.70;2.22;;;6.50;99.90;;;;;;5094091;28;20524;-76
2022/01/09 03:29:40;;;;;;;13.05;3.15;;;6.40;99.90;;;;;;5094529;28;20036;-75
2022/01/09 03:32:10;;;;;;;9.60;1.73;;;6.40;99.90;;;;;;5095246;28;20024;-79
2022/01/09 03:34:36;;;;;;;8.93;2.35;;;6.40;99.90;;;;;;5095033;28;20503;-76
2022/01/09 03:37:03;;;;;;;17.20;2.92;;;6.40;99.90;;;;;;5094548;28;20051;-77
2022/01/09 03:39:29;;;;;;;7.40;1.63;;;6.40;99.90;;;;;;5095127;28;20040;-77
2022/01/09 03:41:57;;;;;;;14.85;1.83;;;6.40;99.90;;;;;;5095080;28;20045;-77
2022/01/09 03:44:22;;;;;;;19.55;4.03;;;6.40;99.90;;;;;;5093802;28;20024;-77
2022/01/09 03:46:48;;;;;;;22.73;1.85;;;6.30;99.90;;;;;;5095691;28;20494;-76
2022/01/09 03:49:13;;;;;;;12.98;2.75;;;6.30;99.90;;;;;;5095269;28;20040;-77
2022/01/09 03:51:44;;;;;;;14.60;2.38;;;6.30;99.90;;;;;;5094738;28;20081;-76
2022/01/09 03:54:10;;;;;;;14.65;2.33;;;6.30;99.90;;;;;;5094189;28;20032;-76
2022/01/09 03:56:36;;;;;;;15.68;2.15;;;6.30;99.90;;;;;;5094190;28;20028;-77
2022/01/09 03:59:03;;;;;;;13.05;2.25;;;6.30;99.90;;;;;;5095023;28;20028;-77
2022/01/09 04:01:29;;;;;;;12.23;2.80;;;6.20;99.90;;;;;;5094735;28;20066;-77
2022/01/09 04:03:54;;;;;;;22.77;3.03;;;6.20;99.90;;;;;;5094241;28;20731;-77
2022/01/09 04:06:20;;;;;;;18.42;3.40;;;6.20;99.90;;;;;;5094162;28;20024;-76
2022/01/09 04:08:47;;;;;;;12.75;2.00;;;6.20;99.90;;;;;;5094433;28;20032;-76
2022/01/09 04:11:17;;;;;;;15.07;2.28;;;6.20;99.90;;;;;;5093625;28;20060;-76
2022/01/09 04:13:43;;;;;;;18.97;3.13;;;6.20;99.90;;;;;;5093735;28;20039;-76
2022/01/09 04:16:08;;;;;;;9.27;1.63;;;6.20;99.90;;;;;;5093473;28;20481;-76
2022/01/09 04:18:36;;;;;;;9.60;1.20;;;6.20;99.90;;;;;;5092775;28;20030;-77
2022/01/09 04:21:02;;;;;;;12.02;1.50;;;6.20;99.90;;;;;;5094057;28;20099;-76
2022/01/09 04:23:28;;;;;;;10.23;1.65;;;6.20;99.90;;;;;;5093658;28;20482;-77
2022/01/09 04:25:53;;;;;;;14.05;1.73;;;6.10;99.90;;;;;;5092478;28;20422;-77
2022/01/09 04:28:19;;;;;;;17.95;2.70;;;6.10;99.90;;;;;;5093513;28;20063;-76
2022/01/09 04:30:45;;;;;;;11.82;2.42;;;6.10;99.90;;;;;;5093430;28;20115;-76
2022/01/09 04:33:10;;;;;;;7.80;1.90;;;6.10;99.90;;;;;;5092323;28;20029;-77
2022/01/09 04:35:37;;;;;;;10.98;2.25;;;6.00;99.90;;;;;;5093259;28;20028;-76
2022/01/09 04:38:04;;;;;;;15.90;2.13;;;6.00;99.90;;;;;;5092824;28;20178;-76
2022/01/09 04:40:29;;;;;;;12.43;2.17;;;6.00;99.90;;;;;;5092515;28;20024;-76
2022/01/09 04:42:58;;;;;;;18.73;3.50;;;5.90;99.90;;;;;;5093048;28;20035;-76
2022/01/09 04:45:26;;;;;;;10.57;1.85;;;6.00;99.90;;;;;;5092928;28;20036;-76
2022/01/09 04:47:53;;;;;;;15.25;1.42;;;6.00;99.90;;;;;;5092354;28;20111;-77
2022/01/09 04:50:24;;;;;;;11.20;1.50;;;5.90;99.90;;;;;;5094061;28;20466;-77
2022/01/09 04:52:59;;;;;;;11.52;1.73;;;5.90;99.90;;;;;;5094231;28;20025;-76
2022/01/09 04:55:29;;;;;;;9.35;2.00;;;5.90;99.90;;;;;;5103690;28;20028;-77
2022/01/09 04:57:55;;;;;;;11.30;2.20;;;5.90;99.90;;;;;;5092979;28;20031;-76
2022/01/09 05:00:21;;;;;;;7.13;2.17;;;5.90;99.90;;;;;;5091965;28;20057;-76
2022/01/09 05:02:47;;;;;;;6.45;1.42;;;5.90;99.90;;;;;;5093879;28;20407;-78
2022/01/09 05:05:13;;;;;;;12.57;1.67;;;5.90;99.90;;;;;;5095796;28;20156;-76
2022/01/09 05:07:39;;;;;;;6.38;2.05;;;5.90;99.90;;;;;;5093227;28;20020;-76
2022/01/09 05:10:06;;;;;;;4.25;1.02;;;5.90;99.90;;;;;;5092843;28;20074;-78
2022/01/09 05:12:32;;;;;;;11.82;1.67;;;5.80;99.90;;;;;;5093210;28;20031;-77
2022/01/09 05:14:58;;;;;;;9.90;2.70;;;5.80;99.90;;;;;;5093716;28;20028;-76
2022/01/09 05:17:24;;;;;;;14.23;3.58;;;5.80;99.90;;;;;;5094055;28;20016;-76
2022/01/09 05:19:52;;;;;;;7.05;1.70;;;5.80;99.90;;;;;;5094570;28;20020;-76
2022/01/09 05:22:18;;;;;;;12.43;2.75;;;5.80;99.90;;;;;;5093031;28;20067;-77
2022/01/09 05:24:44;;;;;;;12.20;1.55;;;5.80;99.90;;;;;;5094994;28;20020;-76
2022/01/09 05:27:10;;;;;;;13.10;2.25;;;5.80;99.90;;;;;;5093369;28;20024;-76
2022/01/09 05:29:57;;;;;;;13.77;2.85;;;5.70;99.90;;;;;;5093194;28;20043;-77
2022/01/09 05:32:21;;;;;;;10.85;3.55;;;5.70;99.90;;;;;;5094165;28;20063;-77
2022/01/09 05:34:47;;;;;;;19.92;2.38;;;5.70;99.90;;;;;;5093644;28;20058;-76
2022/01/09 05:37:12;;;;;;;8.32;1.60;;;5.80;99.90;;;;;;5092350;28;20027;-77
2022/01/09 05:39:38;;;;;;;8.75;1.70;;;5.80;99.90;;;;;;5092718;28;20032;-76
2022/01/09 05:42:07;;;;;;;10.45;1.65;;;5.80;99.90;;;;;;5091517;28;20024;-76
2022/01/09 05:44:33;;;;;;;13.90;1.90;;;5.90;99.90;;;;;;5093613;28;20032;-77
2022/01/09 05:47:00;;;;;;;13.38;1.52;;;5.90;99.90;;;;;;5093713;28;20032;-77
2022/01/09 05:49:26;;;;;;;19.15;2.47;;;5.90;99.90;;;;;;5092460;28;20044;-77
2022/01/09 05:51:51;;;;;;;20.75;2.58;;;6.00;99.90;;;;;;5096876;28;20023;-77
2022/01/09 05:54:17;;;;;;;19.50;3.03;;;5.90;99.90;;;;;;5097445;28;20244;-76
2022/01/09 05:56:42;;;;;;;12.55;2.22;;;5.90;99.90;;;;;;5097568;28;20031;-76
2022/01/09 05:59:08;;;;;;;14.45;1.95;;;5.90;99.90;;;;;;5096107;28;20081;-77
2022/01/09 06:01:35;;;;;;;18.50;2.67;;;5.80;99.90;;;;;;5096992;28;20020;-76
2022/01/09 06:04:01;;;;;;;7.57;1.50;;;5.80;99.90;;;;;;5096474;28;20100;-77
2022/01/09 06:06:29;;;;;;;15.85;1.95;;;5.90;99.90;;;;;;5097180;28;20405;-76
2022/01/09 06:08:55;;;;;;;10.60;2.08;;;5.90;99.90;;;;;;5097522;28;20434;-77
2022/01/09 06:11:20;;;;;;;12.77;2.53;;;5.90;99.90;;;;;;5096396;28;20016;-77
2022/01/09 06:13:46;;;;;;;14.77;2.72;;;5.90;99.90;;;;;;5097287;28;20024;-76
2022/01/09 06:16:12;;;;;;;11.68;1.85;;;5.90;99.90;;;;;;5096330;28;20059;-77
2022/01/09 06:18:37;;;;;;;7.72;1.75;;;5.90;99.90;;;;;;5096923;28;20405;-76
2022/01/09 06:21:03;;;;;;;16.13;1.90;;;6.00;99.90;;;;;;5096558;28;20031;-77
2022/01/09 06:23:28;;;;;;;15.13;3.00;;;6.00;99.90;;;;;;5097194;28;20057;-77
2022/01/09 06:25:55;;;;;;;7.88;2.15;;;6.00;99.90;;;;;;5096943;28;20024;-76
2022/01/09 06:28:21;;;;;;;12.73;1.88;;;6.00;99.90;;;;;;5096925;28;20020;-76
2022/01/09 06:30:47;;;;;;;21.73;2.40;;;6.00;99.90;;;;;;5096675;28;20040;-77
2022/01/09 06:33:13;;;;;;;5.82;1.52;;;5.90;99.90;;;;;;5096256;28;20020;-78
2022/01/09 06:35:40;;;;;;;11.52;2.08;;;5.80;99.90;;;;;;5096761;28;20024;-78
2022/01/09 06:38:07;;;;;;;14.02;2.05;;;5.70;99.90;;;;;;5079326;28;20055;-76
2022/01/09 06:40:34;;;;;;;9.55;2.15;;;5.70;99.90;;;;;;5091260;28;20039;-76
2022/01/09 06:42:59;;;;;;;9.80;1.60;;;5.70;99.90;;;;;;5095078;28;20036;-76
2022/01/09 06:45:27;;;;;;;8.82;1.75;;;5.70;99.90;;;;;;5094895;28;20032;-77
2022/01/09 06:47:54;;;;;;;15.57;2.72;;;5.60;99.90;;;;;;5094132;28;20387;-76
2022/01/09 06:50:20;;;;;;;12.38;2.25;;;5.60;99.90;;;;;;5095503;28;20032;-77
2022/01/09 06:52:45;;;;;;;12.43;1.77;;;5.60;99.90;;;;;;5098191;28;20027;-77
2022/01/09 06:55:11;;;;;;;9.65;2.95;;;5.40;99.90;;;;;;5099962;28;20030;-78
2022/01/09 06:57:37;;;;;;;15.93;2.25;;;5.30;99.90;;;;;;5096033;28;20055;-77
2022/01/09 07:00:04;;;;;;;13.82;2.92;;;5.30;99.90;;;;;;5094640;28;20036;-78
2022/01/09 07:02:30;;;;;;;12.57;2.75;;;5.30;99.90;;;;;;5094451;28;20097;-76
2022/01/09 07:04:56;;;;;;;11.45;2.00;;;5.30;99.90;;;;;;5105791;28;20032;-77
2022/01/09 07:07:21;;;;;;;9.05;2.15;;;5.30;99.90;;;;;;5095997;28;20058;-77
2022/01/09 07:09:47;;;;;;;13.57;1.90;;;5.30;99.90;;;;;;5104227;28;20486;-77
2022/01/09 07:12:12;;;;;;;16.48;2.13;;;5.40;99.90;;;;;;5099653;28;20030;-78
2022/01/09 07:14:38;;;;;;;8.43;1.67;;;5.40;99.90;;;;;;5094203;28;20024;-76
2022/01/09 07:17:05;;;;;;;9.27;1.70;;;5.40;99.90;;;;;;5094197;28;20024;-76
2022/01/09 07:19:30;;;;;;;10.50;2.22;;;5.50;99.90;;;;;;5094287;28;20051;-77
2022/01/09 07:21:56;;;;;;;10.07;2.45;;;5.50;99.90;;;;;;5093504;28;20456;-76
2022/01/09 07:24:21;;;;;;;9.75;3.88;;;5.40;99.90;;;;;;5094225;28;20107;-77
2022/01/09 07:26:47;;;;;;;7.15;1.63;;;5.40;99.90;;;;;;5094064;28;20032;-77
2022/01/09 07:29:13;;;;;;;13.98;2.15;;;5.40;99.90;;;;;;5094224;28;20035;-78
2022/01/09 07:31:38;;;;;;;10.38;2.95;;;5.30;99.90;;;;;;5097106;28;20024;-77
2022/01/09 07:34:04;;;;;;;8.48;2.13;;;5.30;99.90;;;;;;5096448;28;20081;-76
2022/01/09 07:36:29;;;;;;;10.20;3.50;;;5.30;99.90;;;;;;5093468;28;20597;-77
2022/01/09 07:38:55;;;;;;;15.98;1.98;;;5.20;99.90;;;;;;5093762;28;20073;-77
2022/01/09 07:41:21;;;;;;;15.18;2.58;;;5.20;99.90;;;;;;5094156;28;20024;-78
2022/01/09 07:43:47;;;;;;;7.78;2.42;;;5.20;99.90;;;;;;5095021;28;20535;-78
2022/01/09 07:46:13;;;;;;;11.88;1.77;;;5.30;99.90;;;;;;5093328;28;20048;-78
2022/01/09 07:48:39;;;;;;;13.15;2.03;;;5.30;99.90;;;;;;5095073;28;20032;-78
2022/01/09 07:51:05;;;;;;;9.35;2.67;;;5.20;99.90;;;;;;5093607;28;20819;-78
2022/01/09 07:53:30;;;;;;;18.70;2.67;;;5.20;99.90;;;;;;5080185;28;20028;-77
2022/01/09 07:55:56;;;;;;;15.70;2.15;;;5.30;99.90;;;;;;5080059;28;20100;-77
2022/01/09 07:58:22;;;;;;;11.48;2.17;;;5.50;99.90;;;;;;5092759;28;20441;-78
2022/01/09 08:00:47;;;;;;;9.43;1.75;;;5.50;99.90;;;;;;5091943;28;20020;-80
2022/01/09 08:03:14;;;;;;;15.05;2.70;;;5.60;99.90;;;;;;5092302;28;20051;-79
2022/01/09 08:05:40;;;;;;;7.68;1.10;;;5.70;99.90;;;;;;5093257;28;20052;-78
2022/01/09 08:08:06;;;;;;;7.72;2.25;;;5.70;99.90;;;;;;5092850;28;20024;-74
2022/01/09 08:10:33;;;;;;;7.75;1.80;;;5.60;99.90;;;;;;5089601;28;20434;-73
2022/01/09 08:13:00;;;;;;;6.47;1.38;;;5.60;99.90;;;;;;5078793;28;20364;-73
2022/01/09 08:15:27;;;;;;;11.20;1.67;;;5.50;99.90;;;;;;5072006;28;20035;-74
2022/01/09 08:17:54;;;;;;;5.10;1.17;;;5.50;99.90;;;;;;5071228;28;20023;-74
2022/01/09 08:20:20;;;;;;;5.45;1.77;;;5.40;99.90;;;;;;5071847;28;20158;-74
2022/01/09 08:22:45;;;;;;;15.75;2.70;;;5.30;99.90;;;;;;5088767;28;20087;-74
2022/01/09 08:25:13;;;;;;;9.35;1.85;;;5.20;99.90;;;;;;5090664;28;20068;-74
2022/01/09 08:27:39;;;;;;;12.40;2.08;;;5.30;99.90;;;;;;5087167;28;20032;-74
2022/01/09 08:30:06;;;;;;;11.68;1.83;;;5.30;99.90;;;;;;5091025;28;20039;-75
2022/01/09 08:32:33;;;;;;;15.70;1.85;;;5.30;99.90;;;;;;5091494;28;20375;-74
2022/01/09 08:34:58;;;;;;;9.60;2.17;;;5.40;99.90;;;;;;5092069;28;20020;-75
2022/01/09 08:37:24;;;;;;;8.18;1.77;;;5.40;99.90;;;;;;5092037;28;20024;-74
2022/01/09 08:39:49;;;;;;;18.55;2.10;;;5.60;99.90;;;;;;5092905;28;20093;-74
2022/01/09 08:42:15;;;;;;;14.98;2.10;;;5.50;99.90;;;;;;5080681;28;20112;-74
2022/01/09 08:44:41;;;;;;;10.43;1.90;;;5.60;99.90;;;;;;5085868;28;20024;-74
2022/01/09 08:47:07;;;;;;;19.40;2.45;;;5.60;99.90;;;;;;5091964;28;20111;-74
2022/01/09 08:49:33;;;;;;;14.57;2.55;;;5.60;99.90;;;;;;5092330;28;20138;-72
2022/01/09 08:51:58;;;;;;;10.32;1.92;;;5.60;99.90;;;;;;5092062;28;20027;-75
2022/01/09 08:54:24;;;;;;;9.00;2.28;;;5.60;99.90;;;;;;5092813;28;20035;-75
2022/01/09 08:56:50;;;;;;;11.18;2.42;;;5.70;99.90;;;;;;5093093;28;20020;-76
2022/01/09 08:59:16;;;;;;;12.18;2.45;;;5.70;99.90;;;;;;5092438;28;20038;-74
2022/01/09 09:01:44;;;;;;;10.18;1.60;;;5.70;99.90;;;;;;5094099;28;20102;-73
2022/01/09 09:04:10;;;;;;;15.00;2.42;;;5.80;99.90;;;;;;5093276;28;20101;-76
2022/01/09 09:06:36;;;;;;;11.80;2.88;;;5.80;99.90;;;;;;5093335;28;20016;-75
2022/01/09 09:09:02;;;;;;;15.20;3.22;;;5.80;99.90;;;;;;5093404;28;20036;-75
2022/01/09 09:11:27;;;;;;;19.20;2.97;;;5.80;99.90;;;;;;5087787;28;20031;-75
2022/01/09 09:13:54;;;;;;;10.07;2.67;;;5.90;99.90;;;;;;5090463;28;20024;-75
2022/01/09 09:16:20;;;;;;;18.20;3.17;;;6.00;99.90;;;;;;5090267;28;20031;-74
2022/01/09 09:18:47;;;;;;;15.43;1.95;;;6.00;99.90;;;;;;5091002;28;20020;-73
2022/01/09 09:21:13;;;;;;;8.57;1.95;;;6.00;99.90;;;;;;5089924;28;20028;-76
2022/01/09 09:23:38;;;;;;;7.43;1.63;;;6.00;99.90;;;;;;5091052;28;20031;-77
2022/01/09 09:26:04;;;;;;;11.70;1.75;;;6.00;99.90;;;;;;5091015;28;20382;-75
2022/01/09 09:28:30;;;;;;;5.65;1.58;;;6.00;99.90;;;;;;5090939;28;20055;-76
2022/01/09 09:30:55;;;;;;;13.48;2.10;;;5.90;99.90;;;;;;5091422;28;20082;-74
2022/01/09 09:33:21;;;;;;;12.55;1.67;;;5.90;99.90;;;;;;5083399;28;20035;-74
2022/01/09 09:35:47;;;;;;;15.63;1.73;;;5.80;99.90;;;;;;5094237;28;20025;-75
2022/01/09 09:38:13;;;;;;;4.28;1.38;;;5.80;99.90;;;;;;5074279;28;20530;-74
2022/01/09 09:40:39;;;;;;;5.55;1.17;;;5.70;99.90;;;;;;5087087;28;20024;-74
2022/01/09 09:43:05;;;;;;;4.70;1.17;;;5.80;99.90;;;;;;5091182;28;20562;-75
2022/01/09 09:45:31;;;;;;;8.27;1.90;;;5.70;99.90;;;;;;5090889;28;20111;-74
2022/01/09 09:47:56;;;;;;;9.65;1.80;;;5.70;99.90;;;;;;5091186;28;20157;-74
2022/01/09 09:50:22;;;;;;;7.03;1.20;;;5.80;99.90;;;;;;5089867;28;20167;-74
2022/01/09 09:52:49;;;;;;;13.45;2.00;;;5.80;99.90;;;;;;5091828;28;20058;-74
2022/01/09 09:55:16;;;;;;;6.88;1.40;;;5.80;99.90;;;;;;5091628;28;20024;-74
2022/01/09 09:57:42;;;;;;;7.53;1.30;;;5.80;99.90;;;;;;5092489;28;20099;-74
2022/01/09 10:00:15;;;;;;;8.30;1.90;;;5.80;99.90;;;;;;5092021;28;20455;-74
2022/01/09 10:02:50;;;;;;;11.85;1.90;;;5.70;99.90;;;;;;5090916;28;20478;-73
2022/01/09 10:05:18;;;;;;;9.90;1.90;;;5.80;99.90;;;;;;5092071;28;20439;-73
2022/01/09 10:07:44;;;;;;;9.75;2.30;;;5.80;99.90;;;;;;5092591;28;20455;-73
2022/01/09 10:10:16;;;;;;;8.50;2.42;;;5.80;99.90;;;;;;5090961;28;20123;-73
2022/01/09 10:12:44;;;;;;;16.27;2.60;;;5.80;99.90;;;;;;5091768;28;20399;-73
2022/01/09 10:15:13;;;;;;;10.30;2.25;;;5.80;99.90;;;;;;5092242;28;20131;-73
2022/01/09 10:17:49;;;;;;;9.27;2.05;;;5.80;99.90;;;;;;5095708;28;20024;-75
2022/01/09 10:20:20;;;;;;;7.50;1.77;;;5.90;99.90;;;;;;5095959;28;20040;-73
2022/01/09 10:22:52;;;;;;;10.10;2.00;;;5.90;99.90;;;;;;5091939;28;20344;-73
2022/01/09 10:25:32;;;;;;;18.65;2.58;;;6.00;99.90;;;;;;5091123;28;20040;-73
2022/01/09 10:28:20;;;;;;;7.07;1.20;;;6.20;99.90;;;;;;5091924;28;20040;-74
2022/01/09 10:30:51;;;;;;;9.02;2.22;;;6.40;99.90;;;;;;5091293;28;20044;-73
2022/01/09 10:33:25;;;;;;;15.75;2.35;;;6.50;99.90;;;;;;5091349;28;20047;-74
2022/01/09 10:35:51;;;;;;;13.10;1.85;;;6.60;99.90;;;;;;5091327;28;20111;-73
2022/01/09 10:38:27;;;;;;;13.80;2.85;;;6.50;99.90;;;;;;5094160;28;20468;-74
2022/01/09 10:41:03;;;;;;;7.88;1.33;;;6.60;99.90;;;;;;5095350;28;20046;-72
2022/01/09 10:43:41;;;;;;;10.27;1.85;;;6.50;99.90;;;;;;5095394;28;20032;-74
2022/01/09 10:46:08;;;;;;;13.77;3.25;;;6.50;99.90;;;;;;5093752;28;20051;-73
2022/01/09 10:48:42;;;;;;;4.60;1.73;;;6.40;99.90;;;;;;5094997;28;20432;-73
2022/01/09 10:51:10;;;;;;;15.70;2.65;;;6.40;99.90;;;;;;5094922;28;20030;-74
2022/01/09 10:53:44;;;;;;;18.17;2.10;;;6.40;99.90;;;;;;5094624;28;20024;-73
2022/01/09 10:56:21;;;;;;;9.55;1.75;;;6.40;99.90;;;;;;5094781;28;20032;-73
2022/01/09 10:58:52;;;;;;;24.83;2.97;;;6.50;99.90;;;;;;5094018;28;20062;-72
2022/01/09 11:01:23;;;;;;;20.15;2.38;;;6.50;99.90;;;;;;5094696;28;20028;-75
2022/01/09 11:03:52;;;;;;;11.95;1.80;;;6.50;99.90;;;;;;5094916;28;20043;-73
2022/01/09 11:06:18;;;;;;;14.57;2.20;;;6.50;99.90;;;;;;5093362;28;20496;-74
2022/01/09 11:08:44;;;;;;;16.05;3.45;;;6.50;99.90;;;;;;5094563;28;20028;-73
2022/01/09 11:11:24;;;;;;;14.77;1.90;;;6.50;99.90;;;;;;5094519;28;20035;-73
2022/01/09 11:13:52;;;;;;;15.40;3.38;;;6.40;99.90;;;;;;5094168;28;20302;-73
2022/01/09 11:16:34;;;;;;;12.23;2.35;;;6.50;99.90;;;;;;5094598;28;20036;-74
2022/01/09 11:19:23;;;;;;;21.08;2.28;;;6.60;99.90;;;;;;5094317;28;20024;-74
2022/01/09 11:22:02;;;;;;;13.50;2.40;;;6.70;99.90;;;;;;5093897;28;20028;-73
2022/01/09 11:24:52;;;;;;;20.40;2.88;;;6.70;99.90;;;;;;5094003;28;20020;-74
2022/01/09 11:27:25;;;;;;;5.80;1.58;;;6.70;99.90;;;;;;5093331;28;20056;-74
2022/01/09 11:30:09;;;;;;;9.00;2.83;;;6.70;99.90;;;;;;5094481;28;20047;-73
2022/01/09 11:32:59;;;;;;;23.58;3.30;;;6.70;99.90;;;;;;5094262;28;20028;-73
2022/01/09 11:35:43;;;;;;;13.57;3.40;;;6.70;99.90;;;;;;5093260;28;20046;-73
2022/01/09 11:38:46;;;;;;;16.33;2.55;;;6.80;99.90;;;;;;5094002;28;20036;-72
2022/01/09 11:41:25;;;;;;;16.75;3.25;;;6.80;99.90;;;;;;5093019;28;20464;-73
2022/01/09 11:44:09;;;;;;;15.50;4.45;;;6.90;99.90;;;;;;5094615;28;20039;-73
2022/01/09 11:47:00;;;;;;;11.80;2.03;;;6.90;99.90;;;;;;5094351;28;20081;-73
2022/01/09 11:49:26;;;;;;;;;;;6.90;99.90;;;;;;5093267;28;20089;-72
2022/01/09 11:51:54;;;;;;;15.82;3.17;;;6.90;99.90;;;;;;5095459;28;19939;-72
2022/01/09 11:54:21;;;;;;;16.13;2.47;;;7.00;99.90;;;;;;5094573;28;20103;-72
2022/01/09 11:57:08;;;;;;;16.92;2.78;;;7.00;99.90;;;;;;5093366;28;20020;-73
2022/01/09 11:59:34;;;;;;;9.60;2.63;;;7.00;99.90;;;;;;5095190;28;20048;-74
2022/01/09 12:02:03;;;;;;;10.85;2.40;;;7.10;99.90;;;;;;5093856;28;20028;-73
2022/01/09 12:04:34;;;;;;;10.98;2.38;;;7.10;99.90;;;;;;5094406;28;20047;-73
2022/01/09 12:07:08;;;;;;;17.30;4.20;;;7.10;99.90;;;;;;5093911;28;20507;-74
2022/01/09 12:09:35;;;;;;;15.40;2.75;;;7.10;99.90;;;;;;5093141;28;20107;-73
2022/01/09 12:12:13;;;;;;;22.50;2.97;;;7.20;99.90;;;;;;5094458;28;20131;-75
2022/01/09 12:14:42;;;;;;;11.30;2.10;;;7.30;99.90;;;;;;5093838;28;20028;-74
2022/01/09 12:20:05;;;;;;;19.48;3.75;;;7.30;99.90;;;;;;5093818;28;20028;-74
2022/01/09 12:22:45;;;;;;;8.65;2.15;;;7.40;99.90;;;;;;5094316;28;20024;-72
2022/01/09 12:28:19;;;;;;;10.70;2.25;;;7.40;99.90;;;;;;5093540;28;20266;-74
2022/01/09 12:30:55;;;;;;;13.40;3.47;;;7.30;99.90;;;;;;5091889;28;20067;-74
2022/01/09 12:33:31;;;;;;;18.35;3.08;;;7.30;99.90;;;;;;5093225;28;20502;-74
2022/01/09 12:36:07;;;;;;;18.50;2.20;;;7.30;99.90;;;;;;5093558;28;20028;-74
2022/01/09 12:38:36;;;;;;;16.55;2.90;;;7.40;99.90;;;;;;5092955;28;20024;-75
2022/01/09 12:41:03;;;;;;;9.23;1.88;;;7.50;99.90;;;;;;5093843;28;20417;-75
2022/01/09 12:43:33;;;;;;;17.20;2.38;;;7.50;99.90;;;;;;5093588;28;20038;-75
2022/01/09 12:46:15;;;;;;;16.83;3.08;;;7.50;99.90;;;;;;5092955;28;20032;-74
2022/01/09 12:48:49;;;;;;;8.50;2.45;;;7.50;99.90;;;;;;5093310;28;20043;-74
2022/01/09 12:51:15;;;;;;;22.33;2.55;;;7.40;99.90;;;;;;5092212;28;20020;-74
2022/01/09 12:53:47;;;;;;;19.83;2.90;;;7.40;99.90;;;;;;5093290;28;20031;-74
2022/01/09 12:56:18;;;;;;;17.73;3.55;;;7.30;99.90;;;;;;5092960;28;20024;-74
2022/01/09 12:58:50;;;;;;;13.85;2.58;;;7.30;99.90;;;;;;5091911;28;20532;-74
2022/01/09 13:01:25;;;;;;;11.80;2.88;;;7.20;99.90;;;;;;5093271;28;20035;-73
2022/01/09 13:03:59;;;;;;;12.35;2.85;;;7.10;99.90;;;;;;5092318;28;20055;-72